Airfield :
LOGIN :

Register | Disclaimer

   EN    FR    IT 

 










Legend :    VFR   Marginal VFR   IFR   Intensive IFR   Very Intensive IFR
Visi :
Ceiling :
>= 8 km
>= 3000ft
5 to 8 km
1000 to 3000 ft
1500m to 5 km
500 to 1000 ft
800 to 1500m
200 to 500 ft
< 800m
< 200 ft
Symbols :   Thunderstorms  Fog  Heavy snow  Heavy precipitations  Wind > 20 kt
SIGMETs :     Misc.  Thunderstorms  Icing  Turbulence  Mountain Waves  Volcanic Ashes







- Airport Elevation : 240 ft
- IATA code : VLC


LEVC - Valencia Manises

CURRENT METAR :
  • 221200Z 09004KT 030V180 9999 FEW025 23/12 Q1018 NOSIG

EXPIRED METARs :
  • 221130Z 08005KT 010V160 9999 FEW025 23/12 Q1018 NOSIG
  • 221100Z 08007KT 050V110 9999 FEW025 23/12 Q1018 NOSIG
  • 221030Z 08005KT 020V140 9999 FEW025 22/13 Q1018 NOSIG
  • 221000Z VRB05KT 9999 FEW025 22/14 Q1018 NOSIG
  • 220930Z VRB03G14KT CAVOK 22/12 Q1018 NOSIG

TAF TAF LEVC
Valid from the 22 at 12:00 until the 23 at 12:00 UTC


221100Z 2212/2312 10010KT 9999 SCT025 TX24/2213Z TN13/2306Z
PROB30
TEMPO 2214/2218 FEW030TCU
TEMPO 2218/2221 05004KT
BECMG 2219/2221 27005KT
BECMG 2310/2312 10010KT
No reported NOTAMs for that airfield.



MET'MAP, your aeronautical weather chart ! - Copyright ORBIFLY December 2007 - Disclaimer

ORBIFLY MET'MAP TEAM :

Programming & Development : Alexandra Zaïnal
Concept & Development : Baudouin d'Aumeries
Co-Development & Prog : Marc-Olivier Méhu
Technical & hardware support : Manuel Goepfert

Contact : metmap@orbifly.com




SOURCES & CREDITS :

   NOAA